Crater Lake National Park, OR

8:27 AM PDT on May 25, 2015 (GMT -0700)
RAWS | | Change Station
CLOSE
Current Station
Personal Weather Station
Location: Sprague River, OR
Elevation: 4419 ft
Nearby Weather Stations

Elev 4419 ft 42.58 °N, 121.89 °W | Updated 31 minutes ago

Partly Cloudy
Partly Cloudy
51 °F
Feels Like 51 °F
N
5
Wind Variable Wind from ENE
Gusts 8.0 mph

Today
High -- | Low -- °F
--% Chance of Precip.
Yesterday
High -- | Low -- °F
Precip. -- in
5:36 AM 8:32 PM
Waxing Crescent, 49% visible
Pressure 29.91 in
Visibility 10.0 miles
Clouds Few 6000 ft
Scattered Clouds 20000 ft
Dew Point 41 °F
Humidity 68%
Rainfall in
Snow Depth Not available.
UV 2 out of 12
Pollen 7.50 out of 12
Air Quality Not available.
Flu Activity No Activity
METAR KLMT 251453Z 00000KT 10SM FEW060 SCT200 11/08 A2999 RMK AO2 SLP128 T01110083 53003 $

More Conditions Fewer Conditions

Pressure 29.91 in
Visibility 10.0 miles
Clouds Few 6000 ft
Scattered Clouds 20000 ft
Dew Point 41 °F
Humidity 68%
Rainfall in
Snow Depth Not available.
UV 2 out of 12
Pollen 7.50 out of 12
Air Quality Not available.
Flu Activity No Activity
METAR KLMT 251453Z 00000KT 10SM FEW060 SCT200 11/08 A2999 RMK AO2 SLP128 T01110083 53003 $

More Conditions Fewer Conditions

10-Day Weather Forecast

Almanac

Astronomy

May. 25, 2015 Rise Set
Actual Time
Civil Twilight
Nautical Twilight
Astronomical Twilight
Moon
Length of Visible Light
Length of Day
Tomorrow will be .
, % of the Moon is Illuminated

Today's Extremes

State Highs State Lows

Community

WunderPhotos

Upload Photos

1,824,029 photos uploaded!

WunderBlogs® & News

Nearby

Air Quality

  Air Quality AQ Index Pollutant
Not available.

Snow Depth

Station Depth Elevation

Earthquake Activity

City Distance Mag. Time & Date
Minimum magnitude displayed is 2.5.

Coastal Water Temperatures

Place Temperature

Stations

Nearby Weather Stations

Station Location Temp. Windchill Dew Point Humidity Wind Precip. Elev Updated Type